Flight Track Log - Related Links

Times and Time Zones

All times are in EDT time to prevent confusion due to time zone crossing. See the ASQ6167 flight status page for this flight to view local times or setup timezone preferences in your user account.

Time Position Orientation Groundspeed Altitude Reporting Facility
EDT Latitude Longitude Course Direction KTS MPH feet Rate Location/Type
Sun 08:36:49 AM 38.8667 -77.4833 270° West 262 302 4,100  Level Potomac TRACON
Sun 08:37:49 AM 38.8500 -77.5667 256° West 259 298 8,100 3,281 Climbing Potomac TRACON
Sun 08:38:00 AM 38.8833 -77.7969 270° West  Level FlightAware Approximate
Sun 08:38:57 AM 38.8119 -77.6750 246° West 287 330 11,100  Level Washington Center
Sun 08:39:00 AM 38.8667 -77.9168 293° West  Level FlightAware Approximate
Sun 08:39:57 AM 38.7728 -77.7750 243° Southwest 341 392 13,100  Level Washington Center
Sun 08:40:00 AM 38.8995 -78.0311 288° West  Level FlightAware Approximate
Sun 08:40:56 AM 38.8397 -77.8678 313° West 317 365 14,800  Level Washington Center
Sun 08:41:00 AM 38.9285 -78.1472 288° West  Level FlightAware Approximate
Sun 08:41:57 AM 38.8856 -77.9783 298° West 346 398 16,400  Level Washington Center
Sun 08:42:00 AM 38.9500 -78.2619 270° West  Level FlightAware Approximate
Sun 08:42:55 AM 38.9247 -78.0997 293° West 361 415 18,300  Level Washington Center
Sun 08:43:57 AM 38.9594 -78.2292 289° West 379 436 20,200 1,623 Climbing Washington Center
Sun 08:44:57 AM 38.9669 -78.3683 274° West 379 436 21,600 1,220 Climbing Washington Center
Sun 08:45:55 AM 38.9697 -78.5153 271° West 401 461 22,600 966 Climbing Washington Center
Sun 08:46:55 AM 38.9742 -78.6622 272° West 414 476 23,500 700 Climbing Washington Center
Sun 08:47:55 AM 38.9786 -78.8172 272° West 426 490 24,000 250 Climbing Washington Center
Sun 08:48:55 AM 38.9828 -78.9669 272° West 426 490 24,000  Level Washington Center
Sun 08:49:56 AM 38.9847 -79.1142 271° West 421 484 24,000  Level Washington Center
Sun 08:50:57 AM 38.9886 -79.2639 272° West 421 484 24,000  Level Washington Center
Sun 08:51:55 AM 38.9922 -79.4217 272° West 427 491 24,000  Level Washington Center
Sun 08:52:55 AM 38.9975 -79.5767 273° West 432 497 24,000  Level Washington Center
Sun 08:53:57 AM 39.0003 -79.7372 271° West 445 512 24,000  Level Washington Center
Sun 08:54:57 AM 39.0033 -79.8922 272° West 445 512 24,000  Level Washington Center
Sun 08:55:42 AM 39.0028 -80.0017 270° West 436 502 24,000  Level Indianapolis Center
Sun 08:56:42 AM 39.0061 -80.1825 271° West 436 502 24,000  Level Indianapolis Center
Sun 08:57:43 AM 39.0228 -80.3342 278° West 439 505 24,000  Level Indianapolis Center
Sun 08:58:44 AM 39.0656 -80.4797 291° West 435 501 24,000  Level Indianapolis Center
Sun 08:59:45 AM 39.1081 -80.6242 291° West 434 499 24,000  Level Indianapolis Center
Sun 09:00:45 AM 39.1483 -80.7661 290° West 427 491 24,000  Level Indianapolis Center
Sun 09:01:46 AM 39.1903 -80.9081 291° West 426 490 24,000 -49 Level Indianapolis Center
Sun 09:02:47 AM 39.2297 -81.0511 290° West 427 491 23,900 -492 Descending Indianapolis Center
Sun 09:03:48 AM 39.2711 -81.1933 291° West 426 490 23,000 -443 Descending Indianapolis Center
Sun 09:04:49 AM 39.3122 -81.3356 291° West 427 491 23,000  Level Indianapolis Center
Sun 09:05:49 AM 39.3519 -81.4789 290° West 426 490 23,000 -446 Level Indianapolis Center
Sun 09:06:50 AM 39.3928 -81.6244 290° West 430 495 22,100 -1,574 Descending Indianapolis Center
Sun 09:07:51 AM 39.4303 -81.7597 290° West 407 468 19,800 -2,361 Descending Indianapolis Center
Sun 09:08:52 AM 39.4672 -81.8950 290° West 401 461 17,300 -2,782 Descending Indianapolis Center
Sun 09:09:41 AM 39.4992 -82.0225 288° West 385 443 14,700 -2,678 Descending Indianapolis Center
Sun 09:10:53 AM 39.5444 -82.1772 291° West 368 423 11,900 -1,759 Descending Indianapolis Center
Sun 09:11:54 AM 39.5886 -82.2869 298° West 342 394 10,800 -934 Descending Indianapolis Center
Sun 09:12:55 AM 39.6378 -82.3983 300° West 334 384 10,000 -393 Descending Indianapolis Center
Sun 09:13:56 AM 39.6861 -82.4958 303° West 339 390 10,000  Level Indianapolis Center
Sun 09:14:57 AM 39.7361 -82.6092 300° West 343 395 10,000  Level Indianapolis Center
Sun 09:15:57 AM 39.7856 -82.7119 302° West 341 392 10,000 -545 Level Indianapolis Center
Sun 09:16:58 AM 39.8256 -82.8000 301° West 267 307 8,900 -1,488 Descending Indianapolis Center
Sun 09:17:58 AM 39.8639 -82.8825 301° West 259 298 7,000 -1,983 Descending Indianapolis Center
Sun 09:18:59 AM 39.9025 -82.9650 301° West 264 304 4,900 -1,672 Descending Indianapolis Center
Sun 09:20:00 AM 39.9411 -83.0422 303° West 249 287 3,600 -942 Descending Indianapolis Center
Sun 09:21:00 AM 39.9967 -83.0347 North 210 242 3,000 -780 Descending Indianapolis Center
Sun 09:22:03 AM 40.0061 -82.9733 79° East 189 217 2,000 -968 Descending Indianapolis Center
Sun 09:23:04 AM 40.0036 -82.9222 94° East 161 185 1,000 -984 Descending Indianapolis Center

Login

Don't have an account? Register now (free) for customized features, flight alerts, and more!